Langley, Virginia
Current Conditions -  °F | °C
As of 3:58 AM on Saturday 25 Oct 2014 (Local Time) from KLFI Reporting Station
Clear Clear  
Wind Chill: 46°   Ceiling: Unl
Heat Index: 48°   Visibility: 10mi
Dew Point: 48°   Wind: 5mph
Humidity: 99%   Direction: 330°NNW
Pressure: 29.95"   Gusts: NA
Location:  37.0868°N, 76.3631°W
Report Text: KLFI 250758Z AUTO 33004KT 10SM CLR 09/09 A2995 RMK AO2 SLP149 T00890087 $
Loading
Personal Weather Stations






























Interactive Weather Map
Tropical Storm Tracking
New forecast layout! Learn more

10-Day Weather Forecast

Advertisements
Track Severe Weather on mobile